Neillsville, WI

1:13 PM CDT on September 01, 2015 (GMT -0500)
central wisconsin | | Change Station
CLOSE
Current Station
Personal Weather Station
Location: Pittsville, WI
Elevation: 945 ft
Nearby Weather Stations

Elev 945 ft 44.35 °N, 90.34 °W | Updated 15 seconds ago

Partly Cloudy
Partly Cloudy
85.1 °F
Feels Like 91 °F
N
0.2
Wind Variable Wind from SW
Gusts 2.5 mph

Today
High -- | Low -- °F
--% Chance of Precip.
Yesterday
High -- | Low -- °F
Precip. -- in
6:24 AM 7:39 PM
Waning Gibbous, 87% visible
Pressure 29.94 in
Visibility 10.0 miles
Clouds Few 3600 ft
Heat Index 91 °F
Dew Point 72 °F
Humidity 65%
Rainfall 0.00 in
Snow Depth Not available.
UV 4.0 out of 12
Pollen 10.40 out of 12
Air Quality Not available.
Flu Activity Not available.
METAR KMFI 011754Z AUTO 22008KT 10SM FEW036 29/19 A2996 RMK AO2 SLP137 T02940194 10300 20183 58012
Pressure 29.94 in
Visibility 10.0 miles
Clouds Few 3600 ft
Heat Index 91 °F
Dew Point 72 °F
Humidity 65%
Rainfall 0.00 in
Snow Depth Not available.
UV 4.0 out of 12
Pollen 10.40 out of 12
Air Quality Not available.
Flu Activity Not available.
METAR KMFI 011754Z AUTO 22008KT 10SM FEW036 29/19 A2996 RMK AO2 SLP137 T02940194 10300 20183 58012

10-Day Weather Forecast

×

Almanac

Astronomy

Sep. 01, 2015 Rise Set
Actual Time
Civil Twilight
Nautical Twilight
Astronomical Twilight
Moon
Length of Visible Light
Length of Day
Tomorrow will be .
, % of the Moon is Illuminated

Today's Extremes

State Highs State Lows

Community

WunderPhotos

Upload Photos

1,851,592 photos uploaded!

WunderBlogs® & News

Nearby

Air Quality

  Air Quality AQ Index Pollutant
Not available.

Snow Depth

Station Depth Elevation

Earthquake Activity

City Distance Mag. Time & Date
Minimum magnitude displayed is 2.5.

Coastal Water Temperatures

Place Temperature

Stations

Nearby Weather Stations

Station Location Temp. Windchill Dew Point Humidity Wind Precip. Elev Updated Type